Time;durP1;ratioP1;P1;durP2;ratioP2;P2;SDS_P1;SDS_P2;PMS_P1;PMS_P2;Temp;Humidity;BMP_temperature;BMP_pressure;BME280_temperature;BME280_humidity;BME280_pressure;Samples;Min_cycle;Max_cycle;Signal;HPM_P1;HPM_P2
2022/09/10 00:00:38;;;;;;;2.72;1.15;;;;;;;;;;5047821;28;20370;-48
2022/09/10 00:03:04;;;;;;;2.30;0.90;;;;;;;;;;5026392;28;20081;-44
2022/09/10 00:05:36;;;;;;;2.17;0.95;;;;;;;;;;5046595;28;20044;-45
2022/09/10 00:08:03;;;;;;;4.28;1.10;;;;;;;;;;5044645;28;21537;-44
2022/09/10 00:10:29;;;;;;;3.55;1.42;;;;;;;;;;5047089;28;20037;-45
2022/09/10 00:12:54;;;;;;;3.00;1.13;;;;;;;;;;5048308;28;20062;-44
2022/09/10 00:15:20;;;;;;;3.08;0.98;;;;;;;;;;5046648;28;20402;-45
2022/09/10 00:17:46;;;;;;;2.17;0.90;;;;;;;;;;5047478;28;20037;-42
2022/09/10 00:20:12;;;;;;;1.98;1.20;;;;;;;;;;5047655;28;22140;-46
2022/09/10 00:22:37;;;;;;;9.20;1.40;;;;;;;;;;5046954;28;20049;-44
2022/09/10 00:25:03;;;;;;;3.88;1.20;;;;;;;;;;5045618;28;20120;-45
2022/09/10 00:27:29;;;;;;;7.07;1.52;;;;;;;;;;5045224;28;20127;-46
2022/09/10 00:29:54;;;;;;;3.53;1.10;;;;;;;;;;5043124;28;20167;-44
2022/09/10 00:32:20;;;;;;;4.18;1.35;;;;;;;;;;5045165;28;20103;-44
2022/09/10 00:34:47;;;;;;;6.25;1.60;;;;;;;;;;5046410;28;20481;-46
2022/09/10 00:37:13;;;;;;;1.67;1.10;;;;;;;;;;5046087;28;20497;-45
2022/09/10 00:39:39;;;;;;;2.85;1.30;;;;;;;;;;5046433;28;20075;-44
2022/09/10 00:42:05;;;;;;;3.75;1.50;;;;;;;;;;5046824;28;20069;-44
2022/09/10 00:44:38;;;;;;;3.08;1.48;;;;;;;;;;5044869;28;20116;-44
2022/09/10 00:47:08;;;;;;;1.67;1.17;;;;;;;;;;5045264;28;20048;-44
2022/09/10 00:49:39;;;;;;;3.20;1.33;;;;;;;;;;5045018;28;20025;-45
2022/09/10 00:52:06;;;;;;;8.48;1.33;;;;;;;;;;5046182;28;20041;-47
2022/09/10 00:54:34;;;;;;;2.80;1.15;;;;;;;;;;5042036;28;20040;-46
2022/09/10 00:57:06;;;;;;;6.85;1.10;;;;;;;;;;5046203;28;20056;-46
2022/09/10 00:59:33;;;;;;;3.28;1.38;;;;;;;;;;5044779;28;20099;-45
2022/09/10 01:02:01;;;;;;;2.88;1.20;;;;;;;;;;5042921;28;20544;-46
2022/09/10 01:04:27;;;;;;;8.18;1.35;;;;;;;;;;5047253;28;20099;-45
2022/09/10 01:06:53;;;;;;;3.30;1.42;;;;;;;;;;5044225;28;20056;-44
2022/09/10 01:09:20;;;;;;;1.95;0.85;;;;;;;;;;5045865;28;20146;-44
2022/09/10 01:11:55;;;;;;;2.75;1.10;;;;;;;;;;5046160;28;20091;-44
2022/09/10 01:14:48;;;;;;;2.15;1.00;;;;;;;;;;5044701;28;20528;-44
2022/09/10 01:17:19;;;;;;;2.70;0.88;;;;;;;;;;5042387;28;20146;-44
2022/09/10 01:20:18;;;;;;;3.15;1.13;;;;;;;;;;5046828;28;20048;-44
2022/09/10 01:23:10;;;;;;;2.22;1.42;;;;;;;;;;5045242;28;20049;-44
2022/09/10 01:26:13;;;;;;;4.03;1.55;;;;;;;;;;5046663;28;20045;-45
2022/09/10 01:28:49;;;;;;;3.55;1.38;;;;;;;;;;5046307;28;20452;-46
2022/09/10 01:31:35;;;;;;;3.67;0.98;;;;;;;;;;5046127;28;20207;-46
2022/09/10 01:34:09;;;;;;;4.38;1.42;;;;;;;;;;5045287;28;20037;-44
2022/09/10 01:36:39;;;;;;;4.53;1.00;;;;;;;;;;5045157;28;20059;-45
2022/09/10 01:39:05;;;;;;;4.65;1.17;;;;;;;;;;5045850;28;20065;-46
2022/09/10 01:41:31;;;;;;;3.22;1.10;;;;;;;;;;5046285;28;20091;-46
2022/09/10 01:43:57;;;;;;;3.72;1.20;;;;;;;;;;5043688;28;20033;-45
2022/09/10 01:46:34;;;;;;;8.65;1.35;;;;;;;;;;5044182;28;20159;-44
2022/09/10 01:49:28;;;;;;;6.45;1.85;;;;;;;;;;5046336;28;20568;-44
2022/09/10 01:52:25;;;;;;;3.08;1.20;;;;;;;;;;5044605;28;20037;-42
2022/09/10 01:55:35;;;;;;;4.43;1.08;;;;;;;;;;5041859;28;20720;-45
2022/09/10 01:58:23;;;;;;;3.78;1.00;;;;;;;;;;5038514;28;20516;-45
2022/09/10 02:01:06;;;;;;;3.28;1.08;;;;;;;;;;5046872;28;20055;-45
2022/09/10 02:03:35;;;;;;;2.60;1.00;;;;;;;;;;5046692;28;20037;-45
2022/09/10 02:06:01;;;;;;;3.58;1.17;;;;;;;;;;5042300;28;20044;-44
2022/09/10 02:08:31;;;;;;;3.25;1.27;;;;;;;;;;5046915;28;20444;-43
2022/09/10 02:10:59;;;;;;;5.43;1.20;;;;;;;;;;5046253;28;20075;-44
2022/09/10 02:13:28;;;;;;;3.13;1.13;;;;;;;;;;5046042;28;20040;-45
2022/09/10 02:15:55;;;;;;;3.70;0.93;;;;;;;;;;5042290;28;20033;-39
2022/09/10 02:18:22;;;;;;;2.35;1.05;;;;;;;;;;5042606;28;20068;-44
2022/09/10 02:20:54;;;;;;;3.50;1.20;;;;;;;;;;5045697;28;20399;-44
2022/09/10 02:23:21;;;;;;;;;;;;;;;;;;5043561;28;20044;-45
2022/09/10 02:25:48;;;;;;;2.17;0.95;;;;;;;;;;5046480;28;19920;-43
2022/09/10 02:28:14;;;;;;;1.58;1.05;;;;;;;;;;5045006;28;20048;-46
2022/09/10 02:30:39;;;;;;;3.95;1.15;;;;;;;;;;5045173;28;20079;-44
2022/09/10 02:33:05;;;;;;;3.53;1.02;;;;;;;;;;5044386;28;20040;-44
2022/09/10 02:35:31;;;;;;;2.25;1.00;;;;;;;;;;5046494;28;20037;-45
2022/09/10 02:37:57;;;;;;;2.28;1.00;;;;;;;;;;5047792;28;20569;-44
2022/09/10 02:40:23;;;;;;;2.58;0.98;;;;;;;;;;5050967;28;20048;-45
2022/09/10 02:42:49;;;;;;;7.40;1.55;;;;;;;;;;5047614;28;20090;-45
2022/09/10 02:45:15;;;;;;;5.32;1.65;;;;;;;;;;5049565;28;20041;-45
2022/09/10 02:47:41;;;;;;;2.95;1.20;;;;;;;;;;5050354;28;20516;-45
2022/09/10 02:50:07;;;;;;;5.72;1.00;;;;;;;;;;5048727;28;20102;-44
2022/09/10 02:52:33;;;;;;;6.10;1.20;;;;;;;;;;5048037;28;20335;-45
2022/09/10 02:54:59;;;;;;;4.00;1.15;;;;;;;;;;5049197;28;20169;-42
2022/09/10 02:57:25;;;;;;;5.03;1.60;;;;;;;;;;5049697;28;20136;-44
2022/09/10 02:59:52;;;;;;;1.83;0.85;;;;;;;;;;5049590;28;20051;-45
2022/09/10 03:02:19;;;;;;;4.60;1.08;;;;;;;;;;5049146;28;20032;-45
2022/09/10 03:04:45;;;;;;;3.78;0.90;;;;;;;;;;5048325;28;20029;-44
2022/09/10 03:07:11;;;;;;;1.58;0.85;;;;;;;;;;5047089;28;20048;-47
2022/09/10 03:09:39;;;;;;;4.35;1.30;;;;;;;;;;5047102;28;20037;-44
2022/09/10 03:12:06;;;;;;;2.95;1.15;;;;;;;;;;5047387;28;20041;-45
2022/09/10 03:14:32;;;;;;;4.40;1.38;;;;;;;;;;5045689;28;20405;-46
2022/09/10 03:16:59;;;;;;;3.00;1.30;;;;;;;;;;5046473;28;20147;-45
2022/09/10 03:19:25;;;;;;;2.10;0.88;;;;;;;;;;5045624;28;20047;-45
2022/09/10 03:21:51;;;;;;;5.05;1.35;;;;;;;;;;5048038;28;20034;-44
2022/09/10 03:24:17;;;;;;;2.85;1.15;;;;;;;;;;5045304;28;20037;-44
2022/09/10 03:26:43;;;;;;;2.45;1.20;;;;;;;;;;5048502;28;20048;-45
2022/09/10 03:29:09;;;;;;;3.67;1.25;;;;;;;;;;5048696;28;20033;-45
2022/09/10 03:31:35;;;;;;;4.93;1.30;;;;;;;;;;5041671;28;20404;-45
2022/09/10 03:34:00;;;;;;;1.58;0.80;;;;;;;;;;5047256;28;20045;-45
2022/09/10 03:36:30;;;;;;;2.63;1.30;;;;;;;;;;5048211;28;21422;-44
2022/09/10 03:38:58;;;;;;;2.42;0.90;;;;;;;;;;5047466;28;20056;-44
2022/09/10 03:41:27;;;;;;;2.88;1.23;;;;;;;;;;5045900;28;20469;-44
2022/09/10 03:43:54;;;;;;;2.65;1.10;;;;;;;;;;5045318;28;20033;-44
2022/09/10 03:46:21;;;;;;;2.58;1.42;;;;;;;;;;5044269;28;20071;-46
2022/09/10 03:48:47;;;;;;;6.57;1.27;;;;;;;;;;5047379;28;20402;-45
2022/09/10 03:51:14;;;;;;;6.55;1.20;;;;;;;;;;5047971;28;20033;-44
2022/09/10 03:53:41;;;;;;;2.70;1.40;;;;;;;;;;5048693;28;20033;-44
2022/09/10 03:56:07;;;;;;;2.20;1.23;;;;;;;;;;5046869;28;20044;-44
2022/09/10 03:58:33;;;;;;;1.50;1.00;;;;;;;;;;5047722;28;20132;-46
2022/09/10 04:00:58;;;;;;;3.67;1.55;;;;;;;;;;5047430;28;20125;-46
2022/09/10 04:03:24;;;;;;;1.85;1.08;;;;;;;;;;5046821;28;20044;-44
2022/09/10 04:05:50;;;;;;;5.28;1.60;;;;;;;;;;5048159;28;20094;-44
2022/09/10 04:08:15;;;;;;;2.90;1.42;;;;;;;;;;5047456;28;20041;-47
2022/09/10 04:10:42;;;;;;;2.10;1.13;;;;;;;;;;5047450;28;20044;-45
2022/09/10 04:13:09;;;;;;;3.75;1.10;;;;;;;;;;5047222;28;20631;-45
2022/09/10 04:15:36;;;;;;;3.05;1.20;;;;;;;;;;5046690;28;20037;-45
2022/09/10 04:18:02;;;;;;;3.25;1.10;;;;;;;;;;5046078;28;20083;-45
2022/09/10 04:20:28;;;;;;;2.95;1.10;;;;;;;;;;5047865;28;20128;-44
2022/09/10 04:22:55;;;;;;;1.67;1.15;;;;;;;;;;5047656;28;20601;-47
2022/09/10 04:25:21;;;;;;;2.72;1.20;;;;;;;;;;5046813;28;20040;-44
2022/09/10 04:27:48;;;;;;;2.60;1.15;;;;;;;;;;5045698;28;20038;-44
2022/09/10 04:30:14;;;;;;;7.47;1.30;;;;;;;;;;5042629;28;20041;-44
2022/09/10 04:32:40;;;;;;;3.42;1.20;;;;;;;;;;5043983;28;20036;-48
2022/09/10 04:35:06;;;;;;;5.15;1.77;;;;;;;;;;5047262;28;20455;-45
2022/09/10 04:37:32;;;;;;;4.45;1.40;;;;;;;;;;5046236;28;20091;-44
2022/09/10 04:39:58;;;;;;;1.30;1.08;;;;;;;;;;5046175;28;20540;-45
2022/09/10 04:42:24;;;;;;;1.50;1.23;;;;;;;;;;5046022;28;20047;-44
2022/09/10 04:44:50;;;;;;;1.10;1.00;;;;;;;;;;5044787;28;20127;-44
2022/09/10 04:47:17;;;;;;;4.20;1.00;;;;;;;;;;5045417;28;20048;-46
2022/09/10 04:49:43;;;;;;;3.35;1.27;;;;;;;;;;5047420;28;20037;-45
2022/09/10 04:52:12;;;;;;;9.52;1.23;;;;;;;;;;5043340;28;20047;-44
2022/09/10 04:54:38;;;;;;;2.97;1.00;;;;;;;;;;5048128;28;20116;-45
2022/09/10 04:57:05;;;;;;;2.20;1.05;;;;;;;;;;5045045;28;20056;-44
2022/09/10 04:59:31;;;;;;;3.65;1.10;;;;;;;;;;5045719;28;20405;-47
2022/09/10 05:01:56;;;;;;;4.72;1.25;;;;;;;;;;5045939;28;21638;-47
2022/09/10 05:04:23;;;;;;;3.10;1.20;;;;;;;;;;5046433;28;20037;-45
2022/09/10 05:06:49;;;;;;;3.47;1.45;;;;;;;;;;5044769;28;20506;-44
2022/09/10 05:09:18;;;;;;;1.92;1.02;;;;;;;;;;5046218;28;20057;-45
2022/09/10 05:11:45;;;;;;;2.47;1.15;;;;;;;;;;5043381;28;20063;-44
2022/09/10 05:14:12;;;;;;;3.53;1.05;;;;;;;;;;5045158;28;20437;-46
2022/09/10 05:16:38;;;;;;;4.32;1.13;;;;;;;;;;5047562;28;20047;-44
2022/09/10 05:19:05;;;;;;;2.03;1.10;;;;;;;;;;5044586;28;20700;-47
2022/09/10 05:21:31;;;;;;;4.05;1.13;;;;;;;;;;5045873;28;20041;-45
2022/09/10 05:23:57;;;;;;;2.70;1.30;;;;;;;;;;5044051;28;20037;-46
2022/09/10 05:26:23;;;;;;;3.75;1.13;;;;;;;;;;5045143;28;20037;-44
2022/09/10 05:28:50;;;;;;;5.07;1.27;;;;;;;;;;5045555;28;20785;-44
2022/09/10 05:31:16;;;;;;;4.28;1.13;;;;;;;;;;5044591;28;20040;-45
2022/09/10 05:33:41;;;;;;;2.20;1.23;;;;;;;;;;5046939;28;20048;-46
2022/09/10 05:36:10;;;;;;;4.28;1.42;;;;;;;;;;5043816;28;20037;-45
2022/09/10 05:38:35;;;;;;;4.85;1.58;;;;;;;;;;5044527;28;20044;-47
2022/09/10 05:41:01;;;;;;;4.00;1.10;;;;;;;;;;5044967;28;20472;-44
2022/09/10 05:43:27;;;;;;;4.40;1.02;;;;;;;;;;5042448;28;20497;-47
2022/09/10 05:45:53;;;;;;;2.92;1.00;;;;;;;;;;5045894;28;20038;-47
2022/09/10 05:48:20;;;;;;;4.38;1.63;;;;;;;;;;5044414;28;20571;-47
2022/09/10 05:50:45;;;;;;;2.78;1.13;;;;;;;;;;5046491;28;20314;-44
2022/09/10 05:53:11;;;;;;;5.40;1.50;;;;;;;;;;5042916;28;20049;-44
2022/09/10 05:55:37;;;;;;;2.38;1.23;;;;;;;;;;5046133;28;21683;-45
2022/09/10 05:58:04;;;;;;;4.50;1.20;;;;;;;;;;5042974;28;20029;-46
2022/09/10 06:00:29;;;;;;;2.08;0.98;;;;;;;;;;5047053;28;20033;-44
2022/09/10 06:02:58;;;;;;;3.08;1.13;;;;;;;;;;5042524;28;20048;-42
2022/09/10 06:05:24;;;;;;;6.45;1.95;;;;;;;;;;5045333;28;20199;-45
2022/09/10 06:07:50;;;;;;;6.35;1.30;;;;;;;;;;5043860;28;20051;-44
2022/09/10 06:10:15;;;;;;;3.25;1.15;;;;;;;;;;5048136;28;20033;-45
2022/09/10 06:12:50;;;;;;;2.47;0.90;;;;;;;;;;5049984;28;20128;-45
2022/09/10 06:15:17;;;;;;;2.83;1.17;;;;;;;;;;5049438;28;20051;-44
2022/09/10 06:17:43;;;;;;;1.80;0.77;;;;;;;;;;5050065;28;20128;-44
2022/09/10 06:20:11;;;;;;;3.00;1.15;;;;;;;;;;5047200;28;20136;-44
2022/09/10 06:22:37;;;;;;;6.63;1.20;;;;;;;;;;5050574;28;20715;-45
2022/09/10 06:25:03;;;;;;;5.60;1.00;;;;;;;;;;5049535;28;20055;-45
2022/09/10 06:27:29;;;;;;;4.13;1.30;;;;;;;;;;5046085;28;20045;-45
2022/09/10 06:29:55;;;;;;;2.03;1.08;;;;;;;;;;5048071;28;20378;-48
2022/09/10 06:32:21;;;;;;;3.45;1.27;;;;;;;;;;5029554;28;20041;-45
2022/09/10 06:34:47;;;;;;;2.53;1.00;;;;;;;;;;5047691;28;20052;-44
2022/09/10 06:37:13;;;;;;;2.80;1.50;;;;;;;;;;5045087;28;20029;-44
2022/09/10 06:39:39;;;;;;;3.08;1.25;;;;;;;;;;5041979;28;20139;-45
2022/09/10 06:42:05;;;;;;;4.65;1.10;;;;;;;;;;5045293;28;20041;-44
2022/09/10 06:44:31;;;;;;;4.05;1.40;;;;;;;;;;5045813;28;20036;-44
2022/09/10 06:46:57;;;;;;;3.20;1.10;;;;;;;;;;5047161;28;20405;-47
2022/09/10 06:49:23;;;;;;;4.00;0.98;;;;;;;;;;5045411;28;20029;-47
2022/09/10 06:51:49;;;;;;;3.33;1.13;;;;;;;;;;5045308;28;20545;-45
2022/09/10 06:54:16;;;;;;;4.53;1.10;;;;;;;;;;5044948;28;20052;-45
2022/09/10 06:56:42;;;;;;;2.58;1.15;;;;;;;;;;5043320;28;20056;-47
2022/09/10 06:59:08;;;;;;;3.08;1.20;;;;;;;;;;5049628;28;20087;-48
2022/09/10 07:01:34;;;;;;;3.63;1.10;;;;;;;;;;5045980;28;20501;-45
2022/09/10 07:04:00;;;;;;;4.57;1.13;;;;;;;;;;5043955;28;20033;-46
2022/09/10 07:06:33;;;;;;;4.50;1.23;;;;;;;;;;5047015;28;20049;-47
2022/09/10 07:08:59;;;;;;;4.45;1.20;;;;;;;;;;5041691;28;20043;-47
2022/09/10 07:11:27;;;;;;;2.75;1.02;;;;;;;;;;5046411;28;20036;-45
2022/09/10 07:13:53;;;;;;;2.25;0.85;;;;;;;;;;5043593;28;20052;-45
2022/09/10 07:16:20;;;;;;;6.80;1.98;;;;;;;;;;5043241;28;20049;-47
2022/09/10 07:18:50;;;;;;;4.07;1.27;;;;;;;;;;5045217;28;20048;-47
2022/09/10 07:21:17;;;;;;;2.15;1.10;;;;;;;;;;5026486;28;20041;-46
2022/09/10 07:23:46;;;;;;;3.28;1.15;;;;;;;;;;5046891;28;20037;-47
2022/09/10 07:26:16;;;;;;;6.97;1.10;;;;;;;;;;5046544;28;20102;-46
2022/09/10 07:28:43;;;;;;;4.72;1.77;;;;;;;;;;5044528;28;20569;-47
2022/09/10 07:31:16;;;;;;;2.95;1.08;;;;;;;;;;5044711;28;20059;-45
2022/09/10 07:33:42;;;;;;;2.28;1.00;;;;;;;;;;5050543;28;20044;-47
2022/09/10 07:36:08;;;;;;;3.65;1.00;;;;;;;;;;5029433;28;20045;-45
2022/09/10 07:38:36;;;;;;;4.35;1.33;;;;;;;;;;5040862;28;20095;-44
2022/09/10 07:41:03;;;;;;;4.22;1.10;;;;;;;;;;5043091;28;20452;-45
2022/09/10 07:43:28;;;;;;;5.60;1.30;;;;;;;;;;5041359;28;20485;-46
2022/09/10 07:45:54;;;;;;;2.63;1.15;;;;;;;;;;5043159;28;20044;-40
2022/09/10 07:48:20;;;;;;;4.28;1.30;;;;;;;;;;5046574;28;20029;-45
2022/09/10 07:50:45;;;;;;;2.05;1.30;;;;;;;;;;5041605;28;20084;-48
2022/09/10 07:53:11;;;;;;;2.38;1.10;;;;;;;;;;5042544;28;20037;-45
2022/09/10 07:55:37;;;;;;;3.60;1.25;;;;;;;;;;5043715;28;20063;-45
2022/09/10 07:58:02;;;;;;;3.17;1.40;;;;;;;;;;5032307;28;20033;-44
2022/09/10 08:00:28;;;;;;;3.00;1.23;;;;;;;;;;5044622;28;20095;-45
2022/09/10 08:02:54;;;;;;;5.25;1.13;;;;;;;;;;5043077;28;20094;-45
2022/09/10 08:05:20;;;;;;;6.25;1.40;;;;;;;;;;5042348;28;20528;-45
2022/09/10 08:07:46;;;;;;;2.65;0.93;;;;;;;;;;5042203;28;20621;-48
2022/09/10 08:10:12;;;;;;;4.05;1.35;;;;;;;;;;5048034;28;20052;-47
2022/09/10 08:12:39;;;;;;;5.22;1.40;;;;;;;;;;5046398;28;20044;-45
2022/09/10 08:15:06;;;;;;;5.93;1.20;;;;;;;;;;5045091;28;20120;-44
2022/09/10 08:17:33;;;;;;;4.45;1.45;;;;;;;;;;5044109;28;20094;-45
2022/09/10 08:20:00;;;;;;;8.15;1.52;;;;;;;;;;5046687;28;20044;-47
2022/09/10 08:22:25;;;;;;;10.68;1.40;;;;;;;;;;5045015;28;20037;-47
2022/09/10 08:24:52;;;;;;;6.20;1.48;;;;;;;;;;5043913;28;20044;-47
2022/09/10 08:27:17;;;;;;;8.88;1.77;;;;;;;;;;5041499;28;20037;-45
2022/09/10 08:29:43;;;;;;;6.40;1.20;;;;;;;;;;5046304;28;20102;-43
2022/09/10 08:32:11;;;;;;;4.88;1.30;;;;;;;;;;5043377;28;20037;-43
2022/09/10 08:34:38;;;;;;;1.23;1.00;;;;;;;;;;5046521;28;20041;-43
2022/09/10 08:37:03;;;;;;;4.97;1.30;;;;;;;;;;5046751;28;20040;-43
2022/09/10 08:39:32;;;;;;;7.68;1.58;;;;;;;;;;5043452;28;20497;-44
2022/09/10 08:42:08;;;;;;;3.60;1.35;;;;;;;;;;5045456;28;20065;-43
2022/09/10 08:44:47;;;;;;;2.13;0.90;;;;;;;;;;5047238;28;20514;-42
2022/09/10 08:47:53;;;;;;;5.30;0.98;;;;;;;;;;5043173;28;20045;-46
2022/09/10 08:50:22;;;;;;;3.13;1.27;;;;;;;;;;5043923;28;20584;-44
2022/09/10 08:53:14;;;;;;;2.42;0.88;;;;;;;;;;5043592;28;20083;-43
2022/09/10 08:55:41;;;;;;;1.63;0.93;;;;;;;;;;5043587;28;20037;-45
2022/09/10 08:58:17;;;;;;;1.27;0.85;;;;;;;;;;5046193;28;20115;-47
2022/09/10 09:00:45;;;;;;;2.83;0.80;;;;;;;;;;5046395;28;20134;-44
2022/09/10 09:03:32;;;;;;;5.07;0.82;;;;;;;;;;5045012;28;20433;-44
2022/09/10 09:06:00;;;;;;;3.25;1.17;;;;;;;;;;5045218;28;20060;-44
2022/09/10 09:08:33;;;;;;;3.90;1.00;;;;;;;;;;5046095;28;20409;-46
2022/09/10 09:11:32;;;;;;;2.20;1.10;;;;;;;;;;5042422;28;20033;-45
2022/09/10 09:14:18;;;;;;;2.38;1.05;;;;;;;;;;5042761;28;20538;-44
2022/09/10 09:17:20;;;;;;;1.65;0.90;;;;;;;;;;5046026;28;20083;-44
2022/09/10 09:20:05;;;;;;;4.88;0.90;;;;;;;;;;5043024;28;20132;-45
2022/09/10 09:22:44;;;;;;;2.30;1.15;;;;;;;;;;5042097;28;20045;-47
2022/09/10 09:25:21;;;;;;;1.38;0.93;;;;;;;;;;5040872;28;20044;-51
2022/09/10 09:27:52;;;;;;;2.50;1.10;;;;;;;;;;5046209;28;20045;-44
2022/09/10 09:30:21;;;;;;;2.13;0.82;;;;;;;;;;5044737;28;20044;-46
2022/09/10 09:32:48;;;;;;;3.83;0.90;;;;;;;;;;5041664;28;20597;-45
2022/09/10 09:35:26;;;;;;;3.33;1.20;;;;;;;;;;5042428;28;21063;-44
2022/09/10 09:38:08;;;;;;;3.88;1.20;;;;;;;;;;5044817;28;20048;-44
2022/09/10 09:40:48;;;;;;;3.17;0.88;;;;;;;;;;5044366;28;20068;-44
2022/09/10 09:43:26;;;;;;;3.25;1.00;;;;;;;;;;5043393;28;20106;-44
2022/09/10 09:45:52;;;;;;;4.05;0.90;;;;;;;;;;5046716;28;20044;-44
2022/09/10 09:48:20;;;;;;;3.28;0.80;;;;;;;;;;5049889;28;20090;-44
2022/09/10 09:50:56;;;;;;;3.53;1.15;;;;;;;;;;5049453;28;20045;-44
2022/09/10 09:53:24;;;;;;;1.67;0.90;;;;;;;;;;5043906;28;20044;-46
2022/09/10 09:55:55;;;;;;;3.60;1.08;;;;;;;;;;5049281;28;20174;-45
2022/09/10 09:58:21;;;;;;;2.42;0.80;;;;;;;;;;5045630;28;20060;-46
2022/09/10 10:00:51;;;;;;;2.08;0.93;;;;;;;;;;5049860;28;20076;-45
2022/09/10 10:03:25;;;;;;;2.15;1.10;;;;;;;;;;5046778;28;20068;-44
2022/09/10 10:06:01;;;;;;;5.35;1.30;;;;;;;;;;5046402;28;20037;-45
2022/09/10 10:08:41;;;;;;;1.85;0.60;;;;;;;;;;5047356;28;20041;-44
2022/09/10 10:11:08;;;;;;;2.55;0.90;;;;;;;;;;5048092;28;20041;-46
2022/09/10 10:13:37;;;;;;;2.90;0.93;;;;;;;;;;5046582;28;20405;-44
2022/09/10 10:16:17;;;;;;;0.90;0.70;;;;;;;;;;5047671;28;20080;-45
2022/09/10 10:18:43;;;;;;;1.48;0.88;;;;;;;;;;5047349;28;20043;-45
2022/09/10 10:21:16;;;;;;;2.40;1.08;;;;;;;;;;5047558;28;20466;-45
2022/09/10 10:23:43;;;;;;;3.58;0.98;;;;;;;;;;5045511;28;20037;-45
2022/09/10 10:26:29;;;;;;;4.35;1.00;;;;;;;;;;5049245;28;20069;-44
2022/09/10 10:29:15;;;;;;;1.35;0.93;;;;;;;;;;5045205;28;20104;-47
2022/09/10 10:31:46;;;;;;;2.95;1.02;;;;;;;;;;5048202;28;20037;-51
2022/09/10 10:34:36;;;;;;;2.65;1.10;;;;;;;;;;5048411;28;20435;-44
2022/09/10 10:37:23;;;;;;;1.70;0.80;;;;;;;;;;5049038;28;20703;-45
2022/09/10 10:40:21;;;;;;;2.47;0.68;;;;;;;;;;5045428;28;20048;-45
2022/09/10 10:43:15;;;;;;;4.40;0.90;;;;;;;;;;5049540;28;20098;-46
2022/09/10 10:45:52;;;;;;;3.80;1.35;;;;;;;;;;5047533;28;20037;-46
2022/09/10 10:48:36;;;;;;;1.98;0.70;;;;;;;;;;5047823;28;20064;-46
2022/09/10 10:51:25;;;;;;;3.47;1.00;;;;;;;;;;5047380;28;20258;-46
2022/09/10 10:54:28;;;;;;;3.13;0.93;;;;;;;;;;5044638;28;20493;-44
2022/09/10 10:57:25;;;;;;;2.70;0.80;;;;;;;;;;5048051;28;20400;-45
2022/09/10 11:00:03;;;;;;;1.63;0.85;;;;;;;;;;5047827;28;20041;-44
2022/09/10 11:02:49;;;;;;;3.25;0.90;;;;;;;;;;5048781;28;20491;-44
2022/09/10 11:05:31;;;;;;;2.75;0.88;;;;;;;;;;5048143;28;20056;-45
2022/09/10 11:08:02;;;;;;;1.35;0.68;;;;;;;;;;5048516;28;20065;-45
2022/09/10 11:10:38;;;;;;;1.38;0.63;;;;;;;;;;5047576;28;20589;-47
2022/09/10 11:13:18;;;;;;;3.25;1.00;;;;;;;;;;5048771;28;20128;-47
2022/09/10 11:15:58;;;;;;;1.52;0.90;;;;;;;;;;5047176;28;20393;-45
2022/09/10 11:18:56;;;;;;;5.03;0.90;;;;;;;;;;5046093;28;20045;-47
2022/09/10 11:21:31;;;;;;;2.10;0.80;;;;;;;;;;4962209;28;20460;-47
2022/09/10 11:24:06;;;;;;;1.92;0.85;;;;;;;;;;4967192;28;20038;-45
2022/09/10 11:26:40;;;;;;;1.30;0.80;;;;;;;;;;4967063;28;20057;-46
2022/09/10 11:29:35;;;;;;;1.25;1.15;;;;;;;;;;4967258;28;20153;-46
2022/09/10 11:32:11;;;;;;;1.88;0.75;;;;;;;;;;4966490;28;20122;-45
2022/09/10 11:34:46;;;;;;;2.33;0.80;;;;;;;;;;4963161;28;20054;-45
2022/09/10 11:37:57;;;;;;;1.40;0.80;;;;;;;;;;4964960;28;20461;-45
2022/09/10 11:40:34;;;;;;;4.88;1.17;;;;;;;;;;4967740;28;20047;-44
2022/09/10 11:43:09;;;;;;;1.92;0.73;;;;;;;;;;4966707;28;20099;-44
2022/09/10 11:45:53;;;;;;;1.67;0.75;;;;;;;;;;4966088;28;20043;-48
2022/09/10 11:48:29;;;;;;;2.15;0.77;;;;;;;;;;4966820;28;20065;-44
2022/09/10 11:51:06;;;;;;;1.20;0.40;;;;;;;;;;4966483;28;20054;-42
2022/09/10 11:53:31;;;;;;;2.72;0.90;;;;;;;;;;4963741;28;20496;-45
2022/09/10 11:56:21;;;;;;;2.03;0.63;;;;;;;;;;4967611;28;20062;-44
2022/09/10 11:59:17;;;;;;;2.03;0.65;;;;;;;;;;5029779;28;20045;-46
2022/09/10 12:02:14;;;;;;;1.50;0.60;;;;;;;;;;5046021;28;20513;-44
2022/09/10 12:05:13;;;;;;;1.92;0.80;;;;;;;;;;5043384;28;20123;-47
2022/09/10 12:07:55;;;;;;;1.40;0.60;;;;;;;;;;5044701;28;20517;-49
2022/09/10 12:11:00;;;;;;;1.20;0.70;;;;;;;;;;5045812;28;20041;-47
2022/09/10 12:13:25;;;;;;;0.73;0.40;;;;;;;;;;5042972;28;20064;-47
2022/09/10 12:15:58;;;;;;;2.10;0.77;;;;;;;;;;5046173;28;20068;-44
2022/09/10 12:18:46;;;;;;;3.55;0.80;;;;;;;;;;5042495;28;20536;-48
2022/09/10 12:21:26;;;;;;;3.30;1.00;;;;;;;;;;5045001;28;20075;-45
2022/09/10 12:23:53;;;;;;;1.27;0.70;;;;;;;;;;5045768;28;20451;-46
2022/09/10 12:26:20;;;;;;;3.47;0.80;;;;;;;;;;5045034;28;20409;-46
2022/09/10 12:28:48;;;;;;;2.08;0.68;;;;;;;;;;5046184;28;20149;-45
2022/09/10 12:31:16;;;;;;;1.80;0.95;;;;;;;;;;5046016;28;20041;-47
2022/09/10 12:33:44;;;;;;;1.83;0.70;;;;;;;;;;5044172;28;20108;-46
2022/09/10 12:36:26;;;;;;;2.53;0.85;;;;;;;;;;5046120;28;20041;-44
2022/09/10 12:38:51;;;;;;;2.45;0.85;;;;;;;;;;5042280;28;20044;-46
2022/09/10 12:41:22;;;;;;;4.25;1.35;;;;;;;;;;5045185;28;20198;-46
2022/09/10 12:43:48;;;;;;;1.90;0.73;;;;;;;;;;5042259;28;20041;-44
2022/09/10 12:46:13;;;;;;;1.92;0.80;;;;;;;;;;5045684;28;20393;-46
2022/09/10 12:48:49;;;;;;;2.42;0.70;;;;;;;;;;5045490;28;20049;-44
2022/09/10 12:51:39;;;;;;;2.65;0.70;;;;;;;;;;5044928;28;20084;-47
2022/09/10 12:54:23;;;;;;;3.50;0.70;;;;;;;;;;5042637;28;20405;-45
2022/09/10 12:56:49;;;;;;;1.52;0.52;;;;;;;;;;5045310;28;20069;-47
2022/09/10 12:59:35;;;;;;;1.35;0.82;;;;;;;;;;5046070;28;20194;-47
2022/09/10 13:02:02;;;;;;;1.45;0.43;;;;;;;;;;5044458;28;20099;-48
2022/09/10 13:04:34;;;;;;;2.90;0.75;;;;;;;;;;5046616;28;20125;-46
2022/09/10 13:07:22;;;;;;;0.85;0.55;;;;;;;;;;5046018;28;20090;-48
2022/09/10 13:10:16;;;;;;;0.88;0.60;;;;;;;;;;5040544;28;20038;-44
2022/09/10 13:12:43;;;;;;;2.25;0.90;;;;;;;;;;5042953;28;20044;-45
2022/09/10 13:15:28;;;;;;;1.50;0.90;;;;;;;;;;5043829;28;20048;-44
2022/09/10 13:17:54;;;;;;;2.67;0.60;;;;;;;;;;5041822;28;20048;-45
2022/09/10 13:20:22;;;;;;;2.47;1.10;;;;;;;;;;5045198;28;20040;-45
2022/09/10 13:23:08;;;;;;;1.35;0.65;;;;;;;;;;5027225;28;20172;-45
2022/09/10 13:25:42;;;;;;;3.38;0.88;;;;;;;;;;5047204;28;20068;-45
2022/09/10 13:28:29;;;;;;;1.25;0.80;;;;;;;;;;5046061;28;20087;-44
2022/09/10 13:31:13;;;;;;;2.00;0.90;;;;;;;;;;5045257;28;20033;-47
2022/09/10 13:33:53;;;;;;;1.52;0.60;;;;;;;;;;5046339;28;20505;-45
2022/09/10 13:36:37;;;;;;;1.02;0.50;;;;;;;;;;5045650;28;20525;-48
2022/09/10 13:39:26;;;;;;;0.70;0.57;;;;;;;;;;5034800;28;20040;-46
2022/09/10 13:42:12;;;;;;;4.78;0.90;;;;;;;;;;5047165;28;20106;-47
2022/09/10 13:44:59;;;;;;;1.50;0.60;;;;;;;;;;5043105;28;20045;-44
2022/09/10 13:47:50;;;;;;;2.50;0.73;;;;;;;;;;5041572;28;20073;-45
2022/09/10 13:50:24;;;;;;;3.50;0.60;;;;;;;;;;5043761;28;20559;-44
2022/09/10 13:52:53;;;;;;;1.38;0.70;;;;;;;;;;5045931;28;20127;-47
2022/09/10 13:55:29;;;;;;;1.13;0.68;;;;;;;;;;5044003;28;20116;-45
2022/09/10 13:58:30;;;;;;;2.58;0.95;;;;;;;;;;5041376;28;20125;-45
2022/09/10 14:01:02;;;;;;;1.80;0.60;;;;;;;;;;4965299;28;20049;-47
2022/09/10 14:03:32;;;;;;;0.73;0.47;;;;;;;;;;4962004;28;20050;-46
2022/09/10 14:06:06;;;;;;;1.13;0.70;;;;;;;;;;4962796;28;20039;-46
2022/09/10 14:08:42;;;;;;;1.77;0.90;;;;;;;;;;4955787;28;20054;-49
2022/09/10 14:11:12;;;;;;;3.45;1.00;;;;;;;;;;4958522;28;20046;-50
2022/09/10 14:13:43;;;;;;;3.67;0.70;;;;;;;;;;4962388;28;20129;-48
2022/09/10 14:16:12;;;;;;;2.42;0.60;;;;;;;;;;4958012;28;20477;-48
2022/09/10 14:18:45;;;;;;;0.60;0.60;;;;;;;;;;4957782;28;20054;-47
2022/09/10 14:21:12;;;;;;;2.25;0.65;;;;;;;;;;4962010;28;20107;-46
2022/09/10 14:23:43;;;;;;;1.17;0.80;;;;;;;;;;4961653;28;20039;-47
2022/09/10 14:26:11;;;;;;;4.63;0.73;;;;;;;;;;4963359;28;20045;-47
2022/09/10 14:28:57;;;;;;;1.30;0.88;;;;;;;;;;4962408;28;21011;-47
2022/09/10 14:31:23;;;;;;;5.20;0.80;;;;;;;;;;4963452;28;20082;-48
2022/09/10 14:33:50;;;;;;;0.88;0.50;;;;;;;;;;4965897;28;20043;-46
2022/09/10 14:36:28;;;;;;;2.80;0.88;;;;;;;;;;4996055;28;20104;-48
2022/09/10 14:39:17;;;;;;;1.92;0.63;;;;;;;;;;5048964;28;20047;-45
2022/09/10 14:41:43;;;;;;;2.47;0.93;;;;;;;;;;5039836;28;20036;-46
2022/09/10 14:44:21;;;;;;;2.13;0.50;;;;;;;;;;5048918;28;20051;-47
2022/09/10 14:46:51;;;;;;;2.05;0.70;;;;;;;;;;5045141;28;20043;-46
2022/09/10 14:49:25;;;;;;;3.00;0.93;;;;;;;;;;5048002;28;20041;-49
2022/09/10 14:51:51;;;;;;;9.15;0.88;;;;;;;;;;5050585;28;20515;-47
2022/09/10 14:54:17;;;;;;;1.30;0.70;;;;;;;;;;5049053;28;20497;-45
2022/09/10 14:56:46;;;;;;;1.63;0.80;;;;;;;;;;5046781;28;20065;-45
2022/09/10 14:59:15;;;;;;;1.38;0.70;;;;;;;;;;5045123;28;20033;-47
2022/09/10 15:01:46;;;;;;;1.35;0.80;;;;;;;;;;5048897;28;20048;-45
2022/09/10 15:04:18;;;;;;;2.45;0.85;;;;;;;;;;5048294;28;20083;-49
2022/09/10 15:06:44;;;;;;;3.67;0.70;;;;;;;;;;5043829;28;20044;-45
2022/09/10 15:09:13;;;;;;;1.92;0.77;;;;;;;;;;5048150;28;20037;-45
2022/09/10 15:12:10;;;;;;;1.77;0.80;;;;;;;;;;5047407;28;20541;-45